createdAt,value
2023-01-11T00:02:23.009Z,100219.47
2023-01-11T00:07:25.795Z,100190.25
2023-01-11T00:12:29.967Z,100197.09
2023-01-11T00:17:32.742Z,100192.47
2023-01-11T00:22:35.436Z,100183.56
2023-01-11T00:27:39.523Z,100169.72
2023-01-11T00:32:42.461Z,100162.47
2023-01-11T00:37:45.165Z,100149.44
2023-01-11T00:43:06.850Z,100133.53
2023-01-11T00:48:10.704Z,100130.03
2023-01-11T00:53:14.366Z,100135.81
2023-01-11T00:58:18.503Z,100121.81
2023-01-11T01:03:21.179Z,100122.50
2023-01-11T01:08:23.937Z,100130.09
2023-01-11T01:13:45.317Z,100136.13
2023-01-11T01:18:48.045Z,100135.72
2023-01-11T01:23:52.376Z,100137.16
2023-01-11T01:28:56.571Z,100130.59
2023-01-11T01:33:59.404Z,100133.78
2023-01-11T01:39:02.279Z,100125.81
2023-01-11T01:44:27.229Z,100114.44
2023-01-11T01:49:30.031Z,100103.06
2023-01-11T01:54:36.977Z,100107.19
2023-01-11T01:59:41.521Z,100100.19
2023-01-11T02:04:46.054Z,100089.63
2023-01-11T02:09:52.513Z,100084.41
2023-01-11T02:14:56.723Z,100085.09
2023-01-11T02:20:06.216Z,100068.59
2023-01-11T02:25:34.879Z,100062.31
2023-01-11T02:30:45.603Z,100053.56
2023-01-11T02:35:57.132Z,100033.50
2023-01-11T02:41:05.106Z,100038.59
2023-01-11T02:46:11.610Z,100038.72
2023-01-11T02:51:17.598Z,100030.19
2023-01-11T02:56:23.147Z,100027.56
2023-01-11T03:01:27.363Z,100021.66
2023-01-11T03:06:33.439Z,100010.28
2023-01-11T03:12:06.573Z,99994.63
2023-01-11T03:17:20.326Z,99987.19
2023-01-11T03:22:27.061Z,99967.84
2023-01-11T03:27:34.534Z,99944.38
2023-01-11T03:32:45.932Z,99928.72
2023-01-11T03:37:52.006Z,99949.59
2023-01-11T03:43:12.117Z,99950.69
2023-01-11T03:48:18.926Z,99930.66
2023-01-11T03:53:23.726Z,99929.56
2023-01-11T03:58:27.384Z,99930.91
2023-01-11T04:03:31.612Z,99931.72
2023-01-11T04:08:34.365Z,99917.63
2023-01-11T04:13:37.141Z,99933.81
2023-01-11T04:18:41.693Z,99925.16
2023-01-11T04:23:44.421Z,99935.03
2023-01-11T04:28:47.348Z,99928.72
2023-01-11T04:33:51.389Z,99926.25
2023-01-11T04:38:54.120Z,99933.13
2023-01-11T04:43:57.595Z,99918.56
2023-01-11T04:49:02.113Z,99911.81
2023-01-11T04:54:05.108Z,99902.06
2023-01-11T04:59:07.815Z,99901.91
2023-01-11T05:04:13.526Z,99904.63
2023-01-11T05:09:17.569Z,99882.28
2023-01-11T05:14:20.351Z,99887.09
2023-01-11T05:19:24.559Z,99864.84
2023-01-11T05:24:27.325Z,99856.91
2023-01-11T05:29:30.413Z,99850.88
2023-01-11T05:34:34.981Z,99848.25
2023-01-11T05:39:37.723Z,99839.88
2023-01-11T05:44:58.340Z,99843.19
2023-01-11T05:50:02.384Z,99835.09
2023-01-11T05:55:05.864Z,99835.66
2023-01-11T06:00:09.946Z,99839.91
2023-01-11T06:05:14.041Z,99829.91
2023-01-11T06:10:17.399Z,99837.31
2023-01-11T06:15:20.110Z,99824.97
2023-01-11T06:20:24.174Z,99818.38
2023-01-11T06:25:26.997Z,99837.34
2023-01-11T06:30:29.752Z,99837.19
2023-01-11T06:35:34.542Z,99840.75
2023-01-11T06:40:38.070Z,99855.16
2023-01-11T06:45:41.130Z,99854.34
2023-01-11T06:50:45.295Z,99880.03
2023-01-11T06:55:50.829Z,99868.50
2023-01-11T07:00:55.193Z,99851.75
2023-01-11T07:05:59.585Z,99836.09
2023-01-11T07:11:07.870Z,99835.25
2023-01-11T07:16:10.676Z,99843.94
2023-01-11T07:21:14.835Z,99840.47
2023-01-11T07:26:17.784Z,99845.56
2023-01-11T07:31:20.594Z,99828.66
2023-01-11T07:36:24.726Z,99831.69
2023-01-11T07:41:41.366Z,99828.94
2023-01-11T07:46:47.621Z,99825.78
2023-01-11T07:51:52.707Z,99831.56
2023-01-11T07:56:56.578Z,99840.63
2023-01-11T08:01:59.312Z,99825.09
2023-01-11T08:07:03.399Z,99839.53
2023-01-11T08:12:24.222Z,99830.84
2023-01-11T08:17:27.100Z,99826.28
2023-01-11T08:22:31.251Z,99827.94
2023-01-11T08:27:34.013Z,99838.47
2023-01-11T08:32:36.747Z,99827.47
2023-01-11T08:37:40.834Z,99822.91
2023-01-11T08:42:43.616Z,99817.75
2023-01-11T08:47:46.984Z,99821.47
2023-01-11T08:52:52.086Z,99816.47
2023-01-11T08:57:54.826Z,99812.16
2023-01-11T09:02:57.680Z,99806.06
2023-01-11T09:08:01.764Z,99808.47
2023-01-11T09:13:04.844Z,99799.59
2023-01-11T09:18:07.667Z,99797.88
2023-01-11T09:23:11.716Z,99795.50
2023-01-11T09:28:14.462Z,99787.22
2023-01-11T09:33:17.276Z,99785.13
2023-01-11T09:38:21.702Z,99791.06
2023-01-11T09:43:27.285Z,99784.53
2023-01-11T09:48:35.288Z,99779.56
2023-01-11T09:53:40.749Z,99768.34
2023-01-11T09:58:53.507Z,99752.00
2023-01-11T10:04:23.942Z,99740.47
2023-01-11T10:18:32.990Z,99743.22
2023-01-11T10:20:35.291Z,99736.06
2023-01-11T10:25:46.447Z,99730.88
2023-01-11T10:31:06.707Z,99726.03
2023-01-11T10:36:34.607Z,99721.50
2023-01-11T10:41:52.217Z,99711.84
2023-01-11T10:46:55.691Z,99716.25
2023-01-11T10:52:01.811Z,99718.22
2023-01-11T10:57:14.061Z,99706.91
2023-01-11T11:02:29.596Z,99708.72
2023-01-11T11:07:39.336Z,99703.31
2023-01-11T11:12:49.854Z,99697.09
2023-01-11T11:17:53.920Z,99686.44
2023-01-11T11:22:57.929Z,99678.94
2023-01-11T11:28:05.019Z,99670.53
2023-01-11T11:33:10.219Z,99676.38
2023-01-11T11:38:22.003Z,99683.03
2023-01-11T11:43:27.580Z,99674.25
2023-01-11T11:48:31.963Z,99676.94
2023-01-11T11:53:38.281Z,99674.09
2023-01-11T11:58:43.100Z,99666.91
2023-01-11T12:03:46.110Z,99658.41
2023-01-11T12:08:48.837Z,99667.56
2023-01-11T12:14:03.013Z,99667.44
2023-01-11T12:19:26.197Z,99666.09
2023-01-11T12:24:28.922Z,99672.97
2023-01-11T12:29:48.780Z,99661.53
2023-01-11T12:35:06.427Z,99659.22
2023-01-11T12:40:14.957Z,99656.75
2023-01-11T12:45:24.626Z,99652.78
2023-01-11T12:50:30.151Z,99657.19
2023-01-11T12:55:41.692Z,99651.16
2023-01-11T13:01:13.155Z,99642.47
2023-01-11T13:06:18.545Z,99651.66
2023-01-11T13:11:37.076Z,99655.78
2023-01-11T13:16:44.570Z,99653.97
2023-01-11T13:21:53.355Z,99650.88
2023-01-11T13:26:59.793Z,99651.56
2023-01-11T13:32:06.494Z,99654.69
2023-01-11T13:37:13.716Z,99659.31
2023-01-11T13:42:19.737Z,99670.28
2023-01-11T13:47:27.858Z,99668.63
2023-01-11T13:52:44.373Z,99673.06
2023-01-11T13:57:51.615Z,99689.44
2023-01-11T14:03:01.438Z,99683.84
2023-01-11T14:08:16.480Z,99695.47
2023-01-11T14:14:06.218Z,99696.72
2023-01-11T14:19:18.189Z,99698.16
2023-01-11T14:24:21.714Z,99707.50
2023-01-11T14:29:59.208Z,99717.16
2023-01-11T14:35:32.648Z,99718.13
2023-01-11T14:41:15.162Z,99716.31
2023-01-11T14:46:42.931Z,99709.44
2023-01-11T14:51:55.924Z,99721.88
2023-01-11T14:56:59.461Z,99709.75
2023-01-11T15:02:29.886Z,99714.00
2023-01-11T15:07:42.494Z,99723.66
2023-01-11T15:12:45.280Z,99729.72
2023-01-11T15:18:12.542Z,99731.53
2023-01-11T15:23:18.093Z,99731.22
2023-01-11T15:28:35.377Z,99730.56
2023-01-11T15:33:48.245Z,99724.47
2023-01-11T15:38:55.144Z,99742.66
2023-01-11T15:44:14.401Z,99741.69
2023-01-11T15:49:55.431Z,99752.47
2023-01-11T15:55:23.121Z,99767.66
2023-01-11T16:00:39.313Z,99777.44
2023-01-11T16:05:44.063Z,99798.09
2023-01-11T16:10:54.911Z,99797.25
2023-01-11T16:16:07.956Z,99799.88
2023-01-11T16:21:13.251Z,99822.63
2023-01-11T16:26:18.562Z,99820.81
2023-01-11T16:31:21.742Z,99801.34
2023-01-11T16:36:24.929Z,99806.16
2023-01-11T16:41:33.747Z,99820.59
2023-01-11T16:47:16.877Z,99826.38
2023-01-11T16:52:45.470Z,99838.47
2023-01-11T16:57:53.576Z,99845.66
2023-01-11T17:03:18.678Z,99863.31
2023-01-11T17:08:32.941Z,99869.81
2023-01-11T17:13:54.870Z,99875.19
2023-01-11T17:18:59.952Z,99879.47
2023-01-11T17:24:04.516Z,99887.16
2023-01-11T17:29:08.793Z,99893.53
2023-01-11T17:34:18.478Z,99902.88
2023-01-11T17:39:28.269Z,99891.88
2023-01-11T17:44:50.118Z,99903.31
2023-01-11T17:49:54.137Z,99909.97
2023-01-11T17:55:04.803Z,99910.09
2023-01-11T18:00:25.829Z,99913.84
2023-01-11T18:05:30.572Z,99922.50
2023-01-11T18:10:36.231Z,99918.56
2023-01-11T18:15:40.363Z,99919.13
2023-01-11T18:20:43.355Z,99930.13
2023-01-11T18:25:46.871Z,99938.88
2023-01-11T18:30:54.065Z,99942.75
2023-01-11T18:35:59.702Z,99940.84
2023-01-11T18:41:25.980Z,99944.59
2023-01-11T18:46:30.075Z,99954.66
2023-01-11T18:51:34.736Z,99953.97
2023-01-11T18:56:37.437Z,99966.66
2023-01-11T19:01:54.563Z,99969.84
2023-01-11T19:07:04.177Z,99989.63
2023-01-11T19:12:07.633Z,99988.81
2023-01-11T19:17:12.783Z,100000.41
2023-01-11T19:22:15.626Z,100012.09
2023-01-11T19:27:19.023Z,100014.56
2023-01-11T19:32:25.011Z,100011.53
2023-01-11T19:37:29.963Z,100007.13
2023-01-11T19:42:32.747Z,100024.31
2023-01-11T19:47:36.843Z,100021.69
2023-01-11T19:52:39.616Z,100034.25
2023-01-11T19:57:42.390Z,100033.56
2023-01-11T20:02:46.593Z,100040.88
2023-01-11T20:07:49.504Z,100043.47
2023-01-11T20:12:52.223Z,100055.59
2023-01-11T20:17:56.347Z,100061.09
2023-01-11T20:22:59.063Z,100088.19
2023-01-11T20:28:01.810Z,100088.47
2023-01-11T20:33:06.468Z,100089.16
2023-01-11T20:38:09.215Z,100091.66
2023-01-11T20:43:12.138Z,100098.25
2023-01-11T20:48:16.199Z,100101.16
2023-01-11T20:53:18.907Z,100103.78
2023-01-11T20:58:21.909Z,100097.84
2023-01-11T21:03:26.384Z,100104.84
2023-01-11T21:08:29.157Z,100102.50
2023-01-11T21:13:32.066Z,100104.16
2023-01-11T21:18:37.143Z,100104.44
2023-01-11T21:23:40.009Z,100101.53
2023-01-11T21:28:43.597Z,100100.47
2023-01-11T21:33:47.938Z,100102.50
2023-01-11T21:38:50.869Z,100094.94
2023-01-11T21:43:53.635Z,100085.84
2023-01-11T21:48:57.692Z,100091.66
2023-01-11T21:54:00.792Z,100093.84
2023-01-11T21:59:03.933Z,100083.81
2023-01-11T22:04:08.781Z,100094.00
2023-01-11T22:09:12.691Z,100082.41
2023-01-11T22:14:15.443Z,100083.78
2023-01-11T22:19:19.604Z,100093.00
2023-01-11T22:24:22.449Z,100088.19
2023-01-11T22:29:25.308Z,100089.16
2023-01-11T22:34:29.424Z,100086.66
2023-01-11T22:39:32.234Z,100105.09
2023-01-11T22:44:34.967Z,100116.34
2023-01-11T22:49:39.346Z,100112.06
2023-01-11T22:54:42.459Z,100103.28
2023-01-11T22:59:45.235Z,100114.97
2023-01-11T23:04:49.387Z,100110.03
2023-01-11T23:09:52.215Z,100106.56
2023-01-11T23:14:54.948Z,100094.19
2023-01-11T23:19:59.032Z,100087.22
2023-01-11T23:25:01.771Z,100085.41
2023-01-11T23:30:05.109Z,100066.31
2023-01-11T23:35:10.051Z,100067.78
2023-01-11T23:40:13.403Z,100063.66
2023-01-11T23:45:16.476Z,100057.75
2023-01-11T23:50:20.931Z,100056.50
2023-01-11T23:55:23.739Z,100067.19
